createdAt,value
2023-01-30T07:57:32.265Z,99497.34
2023-01-30T08:00:00.144Z,99500.41
2023-01-30T08:02:27.522Z,99502.88
2023-01-30T08:04:54.941Z,99512.63
2023-01-30T08:07:22.324Z,99511.03
2023-01-30T08:09:49.635Z,99515.63
2023-01-30T08:12:17.143Z,99523.47
2023-01-30T08:14:44.462Z,99527.22
2023-01-30T08:17:11.764Z,99529.13
2023-01-30T08:19:39.113Z,99534.81
2023-01-30T08:22:06.610Z,99531.75
2023-01-30T08:24:33.925Z,99546.09
2023-01-30T08:27:01.239Z,99544.19
2023-01-30T08:29:28.583Z,99546.91
2023-01-30T08:32:02.070Z,99543.38
2023-01-30T08:34:29.468Z,99542.84
2023-01-30T08:36:56.772Z,99548.19
2023-01-30T08:39:24.057Z,99547.81
2023-01-30T08:41:51.462Z,99546.63
2023-01-30T08:44:18.808Z,99533.97
2023-01-30T08:46:46.367Z,99536.84
2023-01-30T08:49:13.756Z,99545.00
2023-01-30T08:51:41.105Z,99550.84
2023-01-30T08:54:08.637Z,99537.66
2023-01-30T08:56:35.952Z,99542.38
2023-01-30T08:59:03.298Z,99535.56
2023-01-30T09:01:32.066Z,99546.13
2023-01-30T09:03:59.451Z,99555.59
2023-01-30T09:06:26.855Z,99578.09
2023-01-30T09:08:54.152Z,99573.56
2023-01-30T09:11:21.503Z,99568.13
2023-01-30T09:13:49.864Z,99579.81
2023-01-30T09:16:17.477Z,99576.31
2023-01-30T09:18:45.561Z,99574.59
2023-01-30T09:21:14.111Z,99578.31
2023-01-30T09:23:41.986Z,99588.28
2023-01-30T09:26:09.624Z,99587.75
2023-01-30T09:28:36.980Z,99594.00
2023-01-30T09:31:04.859Z,99600.88
2023-01-30T09:33:32.368Z,99605.88
2023-01-30T09:35:59.870Z,99613.03
2023-01-30T09:38:27.172Z,99613.44
2023-01-30T09:41:31.039Z,99605.16
2023-01-30T09:45:07.997Z,99626.13
2023-01-30T09:48:18.049Z,99606.41
2023-01-30T09:51:31.084Z,99605.59
2023-01-30T09:54:30.916Z,99597.56
2023-01-30T09:57:24.647Z,99592.25
2023-01-30T10:00:05.139Z,99584.59
2023-01-30T10:03:08.623Z,99563.47
2023-01-30T10:05:57.013Z,99556.91
2023-01-30T10:08:54.282Z,99573.41
2023-01-30T10:12:24.125Z,99553.59
2023-01-30T10:16:04.312Z,99561.72
2023-01-30T10:18:51.309Z,99558.47
2023-01-30T10:21:58.084Z,99557.25
2023-01-30T10:25:21.347Z,99559.81
2023-01-30T10:28:12.053Z,99558.06
2023-01-30T10:30:39.439Z,99564.13
2023-01-30T10:33:30.588Z,99557.34
2023-01-30T10:36:14.602Z,99551.28
2023-01-30T10:38:52.849Z,99542.47
2023-01-30T10:41:37.762Z,99545.22
2023-01-30T10:44:14.459Z,99520.50
2023-01-30T10:48:10.184Z,99502.84
2023-01-30T10:51:02.493Z,99499.31
2023-01-30T10:54:03.302Z,99490.31
2023-01-30T10:56:41.089Z,99493.09
2023-01-30T10:59:46.209Z,99496.63
2023-01-30T11:02:56.119Z,99496.41
2023-01-30T11:05:39.576Z,99493.16
2023-01-30T11:08:31.137Z,99486.50
2023-01-30T11:10:59.079Z,99481.94
2023-01-30T11:13:33.605Z,99472.13
2023-01-30T11:16:08.917Z,99453.41
2023-01-30T11:19:18.898Z,99444.59
2023-01-30T11:21:44.580Z,99425.25
2023-01-30T11:24:46.030Z,99427.91
2023-01-30T11:27:30.995Z,99422.13
2023-01-30T11:30:21.417Z,99438.09
2023-01-30T11:32:50.663Z,99431.94
2023-01-30T11:35:27.250Z,99425.06
2023-01-30T11:38:10.284Z,99419.59
2023-01-30T11:40:41.366Z,99412.81
2023-01-30T11:43:14.968Z,99402.88
2023-01-30T11:45:50.066Z,99396.16
2023-01-30T11:49:01.606Z,99389.94
2023-01-30T11:51:24.583Z,99386.31
2023-01-30T11:54:13.829Z,99376.50
2023-01-30T11:56:54.582Z,99377.47
2023-01-30T12:00:00.508Z,99364.44
2023-01-30T12:02:38.298Z,99355.66
2023-01-30T12:05:36.542Z,99343.72
2023-01-30T12:08:43.329Z,99364.09
2023-01-30T12:11:42.081Z,99357.09
2023-01-30T12:14:45.129Z,99330.91
2023-01-30T12:17:33.610Z,99328.88
2023-01-30T12:21:09.312Z,99316.59
2023-01-30T12:24:00.414Z,99306.84
2023-01-30T12:26:44.271Z,99314.84
2023-01-30T12:29:41.023Z,99310.88
2023-01-30T12:32:21.378Z,99307.63
2023-01-30T12:34:50.753Z,99318.34
2023-01-30T12:37:52.296Z,99320.81
2023-01-30T12:41:34.937Z,99321.00
2023-01-30T12:44:42.689Z,99326.13
2023-01-30T12:47:52.573Z,99325.28
2023-01-30T12:50:55.644Z,99313.75
2023-01-30T12:54:20.354Z,99307.84
2023-01-30T12:58:38.388Z,99331.53
2023-01-30T13:01:48.040Z,99326.19
2023-01-30T13:05:16.078Z,99334.22
2023-01-30T13:08:03.487Z,99317.94
2023-01-30T13:11:33.814Z,99314.00
2023-01-30T13:14:55.758Z,99315.44
2023-01-30T13:17:53.067Z,99323.66
2023-01-30T13:21:01.024Z,99313.66
2023-01-30T13:23:54.848Z,99318.06
2023-01-30T13:26:35.624Z,99303.97
2023-01-30T13:29:32.811Z,99305.78
2023-01-30T13:32:09.766Z,99303.53
2023-01-30T13:34:44.715Z,99318.34
2023-01-30T13:37:20.632Z,99306.88
2023-01-30T13:40:12.757Z,99300.78
2023-01-30T13:43:02.199Z,99295.84
2023-01-30T13:45:35.919Z,99293.00
2023-01-30T13:48:58.991Z,99299.00
2023-01-30T13:52:06.833Z,99307.28
2023-01-30T13:55:23.277Z,99296.31
2023-01-30T13:58:44.131Z,99298.31
2023-01-30T14:01:14.191Z,99295.44
2023-01-30T14:03:44.198Z,99308.88
2023-01-30T14:06:26.604Z,99301.59
2023-01-30T14:08:59.404Z,99312.31
2023-01-30T14:11:57.471Z,99302.53
2023-01-30T14:14:40.666Z,99305.16
2023-01-30T14:17:17.290Z,99310.00
2023-01-30T14:20:20.751Z,99320.50
2023-01-30T14:22:59.280Z,99322.78
2023-01-30T14:25:35.369Z,99314.25
2023-01-30T14:28:05.284Z,99325.47
2023-01-30T14:30:44.695Z,99328.03
2023-01-30T14:33:24.120Z,99334.00
2023-01-30T14:36:02.903Z,99328.16
2023-01-30T14:38:36.068Z,99338.84
2023-01-30T14:41:17.444Z,99331.97
2023-01-30T14:43:44.837Z,99335.66
2023-01-30T14:46:18.144Z,99328.72
2023-01-30T14:49:05.678Z,99322.00
2023-01-30T14:51:45.845Z,99334.38
2023-01-30T14:54:13.326Z,99338.59
2023-01-30T14:57:10.728Z,99323.41
2023-01-30T15:00:19.989Z,99337.25
2023-01-30T15:02:59.940Z,99348.81
2023-01-30T15:05:44.228Z,99350.88
2023-01-30T15:08:25.368Z,99341.72
2023-01-30T15:11:31.815Z,99349.22
2023-01-30T15:14:27.367Z,99359.50
2023-01-30T15:18:07.268Z,99375.97
2023-01-30T15:21:00.778Z,99354.56
2023-01-30T15:24:04.922Z,99385.88
2023-01-30T15:27:49.341Z,99393.19
2023-01-30T15:30:59.993Z,99392.69
2023-01-30T15:33:32.533Z,99384.31
2023-01-30T15:36:17.671Z,99386.66
2023-01-30T15:38:45.014Z,99393.44
2023-01-30T15:41:12.692Z,99389.59
2023-01-30T15:44:46.021Z,99405.91
2023-01-30T15:47:52.766Z,99411.56
2023-01-30T15:50:21.077Z,99425.59
2023-01-30T15:52:53.111Z,99421.66
2023-01-30T15:55:37.062Z,99426.44
2023-01-30T15:58:20.495Z,99426.44
2023-01-30T16:00:57.552Z,99427.22
2023-01-30T16:03:36.630Z,99416.72
2023-01-30T16:06:04.235Z,99435.16
2023-01-30T16:08:36.888Z,99437.16
2023-01-30T16:11:04.682Z,99447.91
2023-01-30T16:13:33.309Z,99446.22
2023-01-30T16:16:18.369Z,99451.22
2023-01-30T16:18:55.715Z,99461.69
2023-01-30T16:21:37.507Z,99472.41
2023-01-30T16:24:15.971Z,99482.53
2023-01-30T16:26:50.356Z,99479.69
2023-01-30T16:29:27.824Z,99490.22
2023-01-30T16:31:55.885Z,99480.31
2023-01-30T16:34:41.576Z,99487.78
2023-01-30T16:37:21.075Z,99493.66
2023-01-30T16:40:24.149Z,99498.81
